Weather Data

Pearl Creek Farm: 8878 N Farm Road 75, Walnut Grove MO 65770

<== Previous Day (Wednesday 30 Jan 2013) | Next Day (Friday 01 Feb 2013) ==>

Summary Precipitation Data For Thursday 31 January 2013

ElementValueUnits
Precipitation0"
NotesSome snow yesterday in Spgfld, but no evidence of that at the house.
SourcePearl Creek Farm

Summary Temperature Data For Thursday 31 January 2013

ElementValueUnits
High Temperature37 oF
Low Temperature14 oF
Average Temperature25 oF
High Humidity90 %
Low Humidity71 %
Average Humidity81 %
SourcePearl Creek Farm

Detail Temperature Data For Thursday 31 January 2013

Date / TimeTemp (F)RH (%)Dew Pt (F)Report Date / TimeSource
2013-01-31 00:00:00 28 79 22.4 2013-05-04 11:51:29 Pearl Creek Farm
2013-01-31 00:30:00 28 80 22.7 2013-05-04 11:51:29 Pearl Creek Farm
2013-01-31 01:00:00 27 80 21.7 2013-05-04 11:51:29 Pearl Creek Farm
2013-01-31 01:30:00 26 82 21.1 2013-05-04 11:51:29 Pearl Creek Farm
2013-01-31 02:00:00 25 84 20.7 2013-05-04 11:51:29 Pearl Creek Farm
2013-01-31 02:30:00 25 85 21.0 2013-05-04 11:51:29 Pearl Creek Farm
2013-01-31 03:00:00 24 86 20.4 2013-05-04 11:51:29 Pearl Creek Farm
2013-01-31 03:30:00 24 86 20.4 2013-05-04 11:51:29 Pearl Creek Farm
2013-01-31 04:00:00 23 87 19.6 2013-05-04 11:51:29 Pearl Creek Farm
2013-01-31 04:30:00 23 87 19.7 2013-05-04 11:51:29 Pearl Creek Farm
2013-01-31 05:00:00 23 88 20.0 2013-05-04 11:51:29 Pearl Creek Farm
2013-01-31 05:30:00 23 89 20.1 2013-05-04 11:51:29 Pearl Creek Farm
2013-01-31 06:00:00 22 89 19.3 2013-05-04 11:51:29 Pearl Creek Farm
2013-01-31 06:30:00 23 90 20.4 2013-05-04 11:51:29 Pearl Creek Farm
2013-01-31 07:00:00 24 89 21.2 2013-05-04 11:51:29 Pearl Creek Farm
2013-01-31 07:30:00 23 89 20.3 2013-05-04 11:51:29 Pearl Creek Farm
2013-01-31 08:00:00 24 90 21.4 2013-05-04 11:51:29 Pearl Creek Farm
2013-01-31 08:30:00 25 89 22.2 2013-05-04 11:51:29 Pearl Creek Farm
2013-01-31 09:00:00 27 87 23.7 2013-05-04 11:51:29 Pearl Creek Farm
2013-01-31 09:30:00 29 86 25.2 2013-05-04 11:51:29 Pearl Creek Farm
2013-01-31 10:00:00 32 82 27.1 2013-05-04 11:51:29 Pearl Creek Farm
2013-01-31 10:30:00 33 81 27.8 2013-05-04 11:51:29 Pearl Creek Farm
2013-01-31 11:00:00 35 79 29.2 2013-05-04 11:51:29 Pearl Creek Farm
2013-01-31 11:30:00 36 77 29.5 2013-05-04 11:51:29 Pearl Creek Farm
2013-01-31 12:00:00 37 75 29.8 2013-05-04 11:51:29 Pearl Creek Farm
2013-01-31 12:30:00 36 72 27.9 2013-05-04 11:51:29 Pearl Creek Farm
2013-01-31 13:00:00 35 75 27.7 2013-05-04 11:51:29 Pearl Creek Farm
2013-01-31 13:30:00 33 84 28.6 2013-05-04 11:51:29 Pearl Creek Farm
2013-01-31 14:00:00 31 87 27.5 2013-05-04 11:51:29 Pearl Creek Farm
2013-01-31 14:30:00 29 86 25.4 2013-05-04 11:51:29 Pearl Creek Farm
2013-01-31 15:00:00 29 85 24.9 2013-05-04 11:51:29 Pearl Creek Farm
2013-01-31 15:30:00 27 77 20.6 2013-05-04 11:51:29 Pearl Creek Farm
2013-01-31 16:00:00 27 76 20.3 2013-05-04 11:51:29 Pearl Creek Farm
2013-01-31 16:30:00 27 76 20.3 2013-05-04 11:51:29 Pearl Creek Farm
2013-01-31 17:00:00 26 71 17.9 2013-05-04 11:51:29 Pearl Creek Farm
2013-01-31 17:30:00 24 72 16.2 2013-05-04 11:51:29 Pearl Creek Farm
2013-01-31 18:00:00 23 74 15.8 2013-05-04 11:51:29 Pearl Creek Farm
2013-01-31 18:30:00 22 76 15.5 2013-05-04 11:51:29 Pearl Creek Farm
2013-01-31 19:00:00 22 74 15.0 2013-05-04 11:51:29 Pearl Creek Farm
2013-01-31 19:30:00 21 76 14.5 2013-05-04 11:51:29 Pearl Creek Farm
2013-01-31 20:00:00 20 74 12.9 2013-05-04 11:51:29 Pearl Creek Farm
2013-01-31 20:30:00 19 74 12.0 2013-05-04 11:51:29 Pearl Creek Farm
2013-01-31 21:00:00 18 71 10.2 2013-05-04 11:51:29 Pearl Creek Farm
2013-01-31 21:30:00 16 72 8.5 2013-05-04 11:51:29 Pearl Creek Farm
2013-01-31 22:00:00 15 72 7.6 2013-05-04 11:51:29 Pearl Creek Farm
2013-01-31 22:30:00 15 73 7.8 2013-05-04 11:51:29 Pearl Creek Farm
2013-01-31 23:00:00 15 75 8.4 2013-05-04 11:51:29 Pearl Creek Farm
2013-01-31 23:30:00 14 76 7.9 2013-05-04 11:51:29 Pearl Creek Farm

A total of 48 rows are displayed.